Time;durP1;ratioP1;P1;durP2;ratioP2;P2;SDS_P1;SDS_P2;PMS_P1;PMS_P2;Temp;Humidity;BMP_temperature;BMP_pressure;BME280_temperature;BME280_humidity;BME280_pressure;Samples;Min_cycle;Max_cycle;Signal;HPM_P1;HPM_P2
2022/10/31 00:02:08;;;;;;;14.40;11.87;;;;;;;;;;5062888;28;20741;-45
2022/10/31 00:04:34;;;;;;;19.07;13.33;;;;;;;;;;5066477;28;20227;-45
2022/10/31 00:07:00;;;;;;;20.20;12.90;;;;;;;;;;5067245;28;20199;-45
2022/10/31 00:09:26;;;;;;;14.53;12.20;;;;;;;;;;5068958;28;20224;-45
2022/10/31 00:11:53;;;;;;;16.80;13.30;;;;;;;;;;5066862;28;20195;-45
2022/10/31 00:14:19;;;;;;;22.43;14.57;;;;;;;;;;5064831;28;20208;-45
2022/10/31 00:16:46;;;;;;;19.27;13.77;;;;;;;;;;5062958;28;20214;-45
2022/10/31 00:19:12;;;;;;;19.83;14.90;;;;;;;;;;5068957;28;20199;-44
2022/10/31 00:21:38;;;;;;;22.07;14.73;;;;;;;;;;5067999;28;20276;-44
2022/10/31 00:24:05;;;;;;;21.17;15.03;;;;;;;;;;5065036;28;20298;-44
2022/10/31 00:26:31;;;;;;;25.87;15.77;;;;;;;;;;5061310;28;20226;-44
2022/10/31 00:28:57;;;;;;;23.27;16.57;;;;;;;;;;5063109;28;20326;-44
2022/10/31 00:31:23;;;;;;;21.10;15.77;;;;;;;;;;5066900;28;20655;-45
2022/10/31 00:33:51;;;;;;;25.97;15.60;;;;;;;;;;5067215;28;20905;-45
2022/10/31 00:36:18;;;;;;;24.37;15.53;;;;;;;;;;5067033;28;20206;-45
2022/10/31 00:38:44;;;;;;;21.60;15.73;;;;;;;;;;5064743;28;20746;-45
2022/10/31 00:41:10;;;;;;;18.77;14.93;;;;;;;;;;5061109;28;20317;-44
2022/10/31 00:43:36;;;;;;;18.60;14.47;;;;;;;;;;5063072;28;20200;-44
2022/10/31 00:46:02;;;;;;;23.50;15.23;;;;;;;;;;5066355;28;20254;-45
2022/10/31 00:48:29;;;;;;;19.10;15.13;;;;;;;;;;5068401;28;20204;-44
2022/10/31 00:50:56;;;;;;;18.03;14.67;;;;;;;;;;5066392;28;20235;-44
2022/10/31 00:53:23;;;;;;;21.63;15.50;;;;;;;;;;5064616;28;20298;-44
2022/10/31 00:55:49;;;;;;;19.57;14.57;;;;;;;;;;5062963;28;20202;-45
2022/10/31 00:58:15;;;;;;;27.30;16.20;;;;;;;;;;5066386;28;20560;-44
2022/10/31 01:00:41;;;;;;;24.13;15.47;;;;;;;;;;5063945;28;20195;-45
2022/10/31 01:03:07;;;;;;;20.17;14.60;;;;;;;;;;5067636;28;20656;-44
2022/10/31 01:05:33;;;;;;;17.50;13.90;;;;;;;;;;5067891;28;20195;-44
2022/10/31 01:08:00;;;;;;;16.67;12.70;;;;;;;;;;5063926;28;20251;-44
2022/10/31 01:10:26;;;;;;;18.57;13.33;;;;;;;;;;5062563;28;20207;-44
2022/10/31 01:12:52;;;;;;;15.53;12.63;;;;;;;;;;5064194;28;20216;-44
2022/10/31 01:15:20;;;;;;;19.03;12.27;;;;;;;;;;5065419;28;20289;-44
2022/10/31 01:17:46;;;;;;;18.03;12.17;;;;;;;;;;5067940;28;20199;-44
2022/10/31 01:20:13;;;;;;;14.70;12.30;;;;;;;;;;5066307;28;20273;-44
2022/10/31 01:22:39;;;;;;;17.73;12.83;;;;;;;;;;5065553;28;20251;-44
2022/10/31 01:25:08;;;;;;;17.90;12.33;;;;;;;;;;5061778;28;20223;-44
2022/10/31 01:27:34;;;;;;;18.53;13.07;;;;;;;;;;5061990;28;20199;-45
2022/10/31 01:30:00;;;;;;;20.57;14.20;;;;;;;;;;5060255;28;20260;-44
2022/10/31 01:32:28;;;;;;;21.50;14.10;;;;;;;;;;5065761;28;20204;-44
2022/10/31 01:34:54;;;;;;;17.57;13.47;;;;;;;;;;5063281;28;20274;-44
2022/10/31 01:37:20;;;;;;;16.17;11.83;;;;;;;;;;5067730;28;20200;-44
2022/10/31 01:39:48;;;;;;;16.47;12.80;;;;;;;;;;5063936;28;20196;-44
2022/10/31 01:42:19;;;;;;;15.33;12.43;;;;;;;;;;5061764;28;20277;-45
2022/10/31 01:44:53;;;;;;;16.10;11.57;;;;;;;;;;5063940;28;20264;-44
2022/10/31 01:47:21;;;;;;;19.17;12.77;;;;;;;;;;5064170;28;20617;-45
2022/10/31 01:49:49;;;;;;;17.37;12.47;;;;;;;;;;5063705;28;20541;-44
2022/10/31 01:52:20;;;;;;;17.07;13.17;;;;;;;;;;5065337;28;20270;-44
2022/10/31 01:54:50;;;;;;;16.03;13.87;;;;;;;;;;5067384;28;20202;-44
2022/10/31 01:57:19;;;;;;;19.70;15.23;;;;;;;;;;5065845;28;20247;-45
2022/10/31 01:59:47;;;;;;;18.90;14.57;;;;;;;;;;5064129;28;20240;-44
2022/10/31 02:02:13;;;;;;;21.03;14.40;;;;;;;;;;5061917;28;20228;-44
2022/10/31 02:04:39;;;;;;;15.57;13.10;;;;;;;;;;5062257;28;20203;-44
2022/10/31 02:07:07;;;;;;;18.43;13.73;;;;;;;;;;5063804;28;20271;-45
2022/10/31 02:09:35;;;;;;;18.63;13.10;;;;;;;;;;5065018;28;20265;-44
2022/10/31 02:12:01;;;;;;;16.23;12.83;;;;;;;;;;5065770;28;20191;-44
2022/10/31 02:14:29;;;;;;;18.43;13.27;;;;;;;;;;5067003;28;20214;-44
2022/10/31 02:16:55;;;;;;;23.17;14.20;;;;;;;;;;5064469;28;20199;-44
2022/10/31 02:19:24;;;;;;;22.57;14.50;;;;;;;;;;5060885;28;20199;-44
2022/10/31 02:21:53;;;;;;;19.13;14.40;;;;;;;;;;5063701;28;20314;-44
2022/10/31 02:24:32;;;;;;;17.47;13.97;;;;;;;;;;5061989;28;20566;-44
2022/10/31 02:27:17;;;;;;;18.60;14.30;;;;;;;;;;5063502;28;20716;-44
2022/10/31 02:29:58;;;;;;;19.60;14.20;;;;;;;;;;5067124;28;20203;-44
2022/10/31 02:32:27;;;;;;;18.33;13.20;;;;;;;;;;5065189;28;20226;-44
2022/10/31 02:34:58;;;;;;;18.10;13.37;;;;;;;;;;5062065;28;20598;-44
2022/10/31 02:37:26;;;;;;;16.70;13.80;;;;;;;;;;5061949;28;20264;-45
2022/10/31 02:39:55;;;;;;;19.23;14.43;;;;;;;;;;5063481;28;20203;-45
2022/10/31 02:42:26;;;;;;;20.10;14.20;;;;;;;;;;5061838;28;20340;-44
2022/10/31 02:44:55;;;;;;;16.37;12.80;;;;;;;;;;5063503;28;20658;-44
2022/10/31 02:47:24;;;;;;;15.57;12.47;;;;;;;;;;5070728;28;20204;-44
2022/10/31 02:49:55;;;;;;;14.63;12.23;;;;;;;;;;5069199;28;20200;-44
2022/10/31 02:52:22;;;;;;;17.70;13.77;;;;;;;;;;5067285;28;20232;-44
2022/10/31 02:54:48;;;;;;;18.80;15.00;;;;;;;;;;5066982;28;20196;-44
2022/10/31 02:57:16;;;;;;;22.37;14.50;;;;;;;;;;5065385;28;20845;-44
2022/10/31 02:59:46;;;;;;;16.20;13.30;;;;;;;;;;5064811;28;20234;-45
2022/10/31 03:02:20;;;;;;;21.30;13.97;;;;;;;;;;5067952;28;20243;-44
2022/10/31 03:04:57;;;;;;;16.37;12.90;;;;;;;;;;5070282;28;20240;-44
2022/10/31 03:07:26;;;;;;;14.90;12.30;;;;;;;;;;5070192;28;20323;-44
2022/10/31 03:09:59;;;;;;;19.50;14.77;;;;;;;;;;5065054;28;20199;-44
2022/10/31 03:12:27;;;;;;;18.90;16.00;;;;;;;;;;5065076;28;20688;-44
2022/10/31 03:14:56;;;;;;;18.20;14.73;;;;;;;;;;5067097;28;20203;-44
2022/10/31 03:17:26;;;;;;;19.40;14.07;;;;;;;;;;5066260;28;20200;-46
2022/10/31 03:19:55;;;;;;;18.03;13.30;;;;;;;;;;5066596;28;20318;-44
2022/10/31 03:22:22;;;;;;;15.80;12.70;;;;;;;;;;5069969;28;20270;-44
2022/10/31 03:24:49;;;;;;;18.57;13.63;;;;;;;;;;5069709;28;20230;-44
2022/10/31 03:27:16;;;;;;;15.30;12.67;;;;;;;;;;5068438;28;20199;-44
2022/10/31 03:29:44;;;;;;;16.37;12.70;;;;;;;;;;5066575;28;20200;-45
2022/10/31 03:32:12;;;;;;;17.73;12.20;;;;;;;;;;5064616;28;20198;-44
2022/10/31 03:34:39;;;;;;;13.20;11.47;;;;;;;;;;5063981;28;20206;-44
2022/10/31 03:37:09;;;;;;;16.97;12.47;;;;;;;;;;5069697;28;20915;-45
2022/10/31 03:39:36;;;;;;;19.13;13.57;;;;;;;;;;5069757;28;20245;-44
2022/10/31 03:42:05;;;;;;;23.00;13.37;;;;;;;;;;5066043;28;20257;-45
2022/10/31 03:44:33;;;;;;;19.43;14.60;;;;;;;;;;5066183;28;20290;-44
2022/10/31 03:46:59;;;;;;;17.70;14.13;;;;;;;;;;5062267;28;20571;-44
2022/10/31 03:49:25;;;;;;;21.57;14.67;;;;;;;;;;5068131;28;20210;-44
2022/10/31 03:51:56;;;;;;;21.33;14.93;;;;;;;;;;5066074;28;20314;-45
2022/10/31 03:54:26;;;;;;;21.93;18.47;;;;;;;;;;5069667;28;20227;-44
2022/10/31 03:56:53;;;;;;;22.60;17.20;;;;;;;;;;5064088;28;20210;-44
2022/10/31 03:59:23;;;;;;;24.57;15.77;;;;;;;;;;5065778;28;20200;-44
2022/10/31 04:01:51;;;;;;;19.50;13.60;;;;;;;;;;5065842;28;20228;-44
2022/10/31 04:04:17;;;;;;;20.97;12.63;;;;;;;;;;5069324;28;20196;-44
2022/10/31 04:06:44;;;;;;;16.50;13.67;;;;;;;;;;5068679;28;20286;-44
2022/10/31 04:09:11;;;;;;;18.13;14.43;;;;;;;;;;5067679;28;20226;-44
2022/10/31 04:11:41;;;;;;;21.33;14.93;;;;;;;;;;5064152;28;20191;-44
2022/10/31 04:14:08;;;;;;;23.07;14.53;;;;;;;;;;5063951;28;20196;-44
2022/10/31 04:16:34;;;;;;;23.23;15.20;;;;;;;;;;5068992;28;20282;-44
2022/10/31 04:19:00;;;;;;;19.97;14.87;;;;;;;;;;5067173;28;20257;-44
2022/10/31 04:21:30;;;;;;;17.83;13.73;;;;;;;;;;5069100;28;20231;-44
2022/10/31 04:23:56;;;;;;;18.10;13.40;;;;;;;;;;5063763;28;20650;-45
2022/10/31 04:26:22;;;;;;;14.97;12.00;;;;;;;;;;5063618;28;20567;-44
2022/10/31 04:28:49;;;;;;;16.07;12.37;;;;;;;;;;5064789;28;20795;-44
2022/10/31 04:31:16;;;;;;;17.57;12.37;;;;;;;;;;5068857;28;20200;-44
2022/10/31 04:33:42;;;;;;;17.57;12.37;;;;;;;;;;5069057;28;20199;-44
2022/10/31 04:36:08;;;;;;;15.50;12.50;;;;;;;;;;5067225;28;20279;-44
2022/10/31 04:38:34;;;;;;;14.93;11.93;;;;;;;;;;5064655;28;20689;-44
2022/10/31 04:41:00;;;;;;;13.13;11.03;;;;;;;;;;5062853;28;20207;-44
2022/10/31 04:43:26;;;;;;;16.43;11.23;;;;;;;;;;5065014;28;20199;-44
2022/10/31 04:45:53;;;;;;;18.23;11.90;;;;;;;;;;5065114;28;20204;-44
2022/10/31 04:48:19;;;;;;;23.37;14.40;;;;;;;;;;5068639;28;20314;-44
2022/10/31 04:50:45;;;;;;;23.60;15.50;;;;;;;;;;5068357;28;20253;-45
2022/10/31 04:53:11;;;;;;;20.20;13.23;;;;;;;;;;5066807;28;20200;-44
2022/10/31 04:55:37;;;;;;;24.47;15.40;;;;;;;;;;5064238;28;20198;-44
2022/10/31 04:58:03;;;;;;;27.30;16.47;;;;;;;;;;5063080;28;20290;-44
2022/10/31 05:00:29;;;;;;;22.13;16.70;;;;;;;;;;5066533;28;20210;-44
2022/10/31 05:02:58;;;;;;;29.23;16.17;;;;;;;;;;5067689;28;20689;-44
2022/10/31 05:05:25;;;;;;;28.43;15.97;;;;;;;;;;5068421;28;20211;-44
2022/10/31 05:07:51;;;;;;;23.30;15.80;;;;;;;;;;5066099;28;20219;-44
2022/10/31 05:10:18;;;;;;;17.60;13.30;;;;;;;;;;5062699;28;20237;-44
2022/10/31 05:12:47;;;;;;;21.50;15.63;;;;;;;;;;5064522;28;20415;-44
2022/10/31 05:15:14;;;;;;;19.97;14.63;;;;;;;;;;5062772;28;20233;-44
2022/10/31 05:17:40;;;;;;;21.37;15.47;;;;;;;;;;5064516;28;20199;-44
2022/10/31 05:20:08;;;;;;;22.53;17.23;;;;;;;;;;5063914;28;20203;-44
2022/10/31 05:22:34;;;;;;;43.53;16.77;;;;;;;;;;5067228;28;20223;-44
2022/10/31 05:25:00;;;;;;;25.80;16.10;;;;;;;;;;5065949;28;20222;-44
2022/10/31 05:27:26;;;;;;;23.87;17.17;;;;;;;;;;5059265;28;20254;-44
2022/10/31 05:29:52;;;;;;;20.87;14.80;;;;;;;;;;5062307;28;20658;-44
2022/10/31 05:32:18;;;;;;;17.63;14.50;;;;;;;;;;5065996;28;20237;-44
2022/10/31 05:34:44;;;;;;;15.77;14.17;;;;;;;;;;5065087;28;20227;-44
2022/10/31 05:37:12;;;;;;;14.47;12.60;;;;;;;;;;5065787;28;20256;-43
2022/10/31 05:39:38;;;;;;;27.57;16.50;;;;;;;;;;5060235;28;20239;-43
2022/10/31 05:42:04;;;;;;;28.17;15.77;;;;;;;;;;5063938;28;20266;-44
2022/10/31 05:44:30;;;;;;;21.30;15.97;;;;;;;;;;5067376;28;20249;-44
2022/10/31 05:46:56;;;;;;;21.87;16.63;;;;;;;;;;5065612;28;20203;-44
2022/10/31 05:49:22;;;;;;;22.30;16.73;;;;;;;;;;5061409;28;20270;-44
2022/10/31 05:51:48;;;;;;;20.70;16.03;;;;;;;;;;5063672;28;20228;-43
2022/10/31 05:54:16;;;;;;;20.00;16.47;;;;;;;;;;5061927;28;20199;-43
2022/10/31 05:56:42;;;;;;;17.23;15.47;;;;;;;;;;5062040;28;20206;-44
2022/10/31 05:59:08;;;;;;;52.20;18.17;;;;;;;;;;5063997;28;20218;-44
2022/10/31 06:01:34;;;;;;;17.30;15.50;;;;;;;;;;5067445;28;20224;-44
2022/10/31 06:04:00;;;;;;;16.83;15.13;;;;;;;;;;5065629;28;20253;-44
2022/10/31 06:06:26;;;;;;;15.70;14.20;;;;;;;;;;5067395;28;20204;-44
2022/10/31 06:08:52;;;;;;;16.73;15.03;;;;;;;;;;5064176;28;20786;-44
2022/10/31 06:11:19;;;;;;;15.67;14.07;;;;;;;;;;5061999;28;20290;-44
2022/10/31 06:13:45;;;;;;;15.67;14.17;;;;;;;;;;5063645;28;20234;-44
2022/10/31 06:16:11;;;;;;;19.73;15.47;;;;;;;;;;5065375;28;20639;-44
2022/10/31 06:18:37;;;;;;;14.57;13.17;;;;;;;;;;5067362;28;20653;-44
2022/10/31 06:21:03;;;;;;;13.60;12.40;;;;;;;;;;5069112;28;20203;-44
2022/10/31 06:23:29;;;;;;;16.43;14.87;;;;;;;;;;5073790;28;20669;-44
2022/10/31 06:25:55;;;;;;;15.70;14.20;;;;;;;;;;5066711;28;20206;-44
2022/10/31 06:28:23;;;;;;;14.93;13.40;;;;;;;;;;5068530;28;20290;-44
2022/10/31 06:30:49;;;;;;;14.13;12.93;;;;;;;;;;5068480;28;20254;-45
2022/10/31 06:33:15;;;;;;;13.00;11.90;;;;;;;;;;5073906;28;20201;-44
2022/10/31 06:35:45;;;;;;;12.83;11.63;;;;;;;;;;5073612;28;20558;-44
2022/10/31 06:38:11;;;;;;;13.97;12.77;;;;;;;;;;5070070;28;20668;-44
2022/10/31 06:40:37;;;;;;;14.27;13.07;;;;;;;;;;5068409;28;20192;-44
2022/10/31 06:43:03;;;;;;;13.63;12.53;;;;;;;;;;5068078;28;20227;-44
2022/10/31 06:45:30;;;;;;;14.27;13.07;;;;;;;;;;5071194;28;20213;-44
2022/10/31 06:47:57;;;;;;;13.70;12.50;;;;;;;;;;5072194;28;20203;-44
2022/10/31 06:50:23;;;;;;;13.93;12.73;;;;;;;;;;5072280;28;20207;-44
2022/10/31 06:52:52;;;;;;;13.70;12.27;;;;;;;;;;5072501;28;20235;-44
2022/10/31 06:55:20;;;;;;;15.30;13.80;;;;;;;;;;5066367;28;20205;-45
2022/10/31 06:57:49;;;;;;;15.27;13.83;;;;;;;;;;5069781;28;20203;-44
2022/10/31 07:00:16;;;;;;;21.43;14.70;;;;;;;;;;5073197;28;20200;-44
2022/10/31 07:02:43;;;;;;;16.53;14.93;;;;;;;;;;5069167;28;20318;-44
2022/10/31 07:05:09;;;;;;;15.53;14.27;;;;;;;;;;5071300;28;20210;-44
2022/10/31 07:07:35;;;;;;;16.83;15.30;;;;;;;;;;5072682;28;20191;-44
2022/10/31 07:10:01;;;;;;;29.90;16.87;;;;;;;;;;5070776;28;20298;-44
2022/10/31 07:12:27;;;;;;;16.30;14.97;;;;;;;;;;5064260;28;20637;-44
2022/10/31 07:14:53;;;;;;;17.00;15.60;;;;;;;;;;5069326;28;20241;-44
2022/10/31 07:17:19;;;;;;;22.20;17.60;;;;;;;;;;5072510;28;20284;-44
2022/10/31 07:19:47;;;;;;;16.13;14.77;;;;;;;;;;5072690;28;20299;-44
2022/10/31 07:22:13;;;;;;;33.87;17.77;;;;;;;;;;5071001;28;20227;-44
2022/10/31 07:24:39;;;;;;;46.80;17.20;;;;;;;;;;5066989;28;20245;-44
2022/10/31 07:27:05;;;;;;;43.07;17.47;;;;;;;;;;5066353;28;20606;-44
2022/10/31 07:29:31;;;;;;;17.87;16.23;;;;;;;;;;5064703;28;20204;-44
2022/10/31 07:31:57;;;;;;;16.23;14.80;;;;;;;;;;5065774;28;20241;-44
2022/10/31 07:34:23;;;;;;;16.73;14.07;;;;;;;;;;5068781;28;20196;-44
2022/10/31 07:36:52;;;;;;;16.00;14.60;;;;;;;;;;5068951;28;20203;-44
2022/10/31 07:39:18;;;;;;;41.03;17.27;;;;;;;;;;5064565;28;20217;-44
2022/10/31 07:41:44;;;;;;;32.63;17.93;;;;;;;;;;5060994;28;20315;-44
2022/10/31 07:44:10;;;;;;;46.47;17.77;;;;;;;;;;5064051;28;20303;-44
2022/10/31 07:46:36;;;;;;;17.60;15.93;;;;;;;;;;5065705;28;20294;-44
2022/10/31 07:49:02;;;;;;;18.63;15.53;;;;;;;;;;5068924;28;20203;-44
2022/10/31 07:51:28;;;;;;;22.63;16.77;;;;;;;;;;5067978;28;20235;-44
2022/10/31 07:53:56;;;;;;;19.40;15.93;;;;;;;;;;5065455;28;20773;-44
2022/10/31 07:56:22;;;;;;;26.13;16.67;;;;;;;;;;5063866;28;20804;-44
2022/10/31 07:58:48;;;;;;;29.93;15.33;;;;;;;;;;5065752;28;20196;-44
2022/10/31 08:01:14;;;;;;;34.67;16.37;;;;;;;;;;5064038;28;20196;-44
2022/10/31 08:03:40;;;;;;;17.73;15.93;;;;;;;;;;5065663;28;20278;-44
2022/10/31 08:06:06;;;;;;;27.43;17.03;;;;;;;;;;5063621;28;20199;-43
2022/10/31 08:08:32;;;;;;;15.43;14.13;;;;;;;;;;5069315;28;20238;-44
2022/10/31 08:10:59;;;;;;;15.43;14.13;;;;;;;;;;5065574;28;20200;-44
2022/10/31 08:13:26;;;;;;;15.60;14.20;;;;;;;;;;5067256;28;20223;-44
2022/10/31 08:15:53;;;;;;;13.80;12.70;;;;;;;;;;5065189;28;20203;-45
2022/10/31 08:18:21;;;;;;;14.90;13.60;;;;;;;;;;5063866;28;20554;-44
2022/10/31 08:20:47;;;;;;;14.03;12.77;;;;;;;;;;5065300;28;20196;-44
2022/10/31 08:23:14;;;;;;;14.30;13.00;;;;;;;;;;5066966;28;20586;-44
2022/10/31 08:25:41;;;;;;;13.87;12.60;;;;;;;;;;5068823;28;20199;-44
2022/10/31 08:28:09;;;;;;;13.60;12.30;;;;;;;;;;5067445;28;20253;-45
2022/10/31 08:30:36;;;;;;;15.67;14.03;;;;;;;;;;5063299;28;20249;-44
2022/10/31 08:33:02;;;;;;;20.33;14.93;;;;;;;;;;5061742;28;20231;-44
2022/10/31 08:35:28;;;;;;;14.83;13.43;;;;;;;;;;5068776;28;20552;-44
2022/10/31 08:37:55;;;;;;;15.27;13.80;;;;;;;;;;5066723;28;20203;-44
2022/10/31 08:40:21;;;;;;;16.20;14.60;;;;;;;;;;5068616;28;20207;-43
2022/10/31 08:42:47;;;;;;;18.03;16.13;;;;;;;;;;5062959;28;20223;-45
2022/10/31 08:45:14;;;;;;;20.50;16.53;;;;;;;;;;5066904;28;20203;-45
2022/10/31 08:47:41;;;;;;;20.03;17.13;;;;;;;;;;5068586;28;20276;-45
2022/10/31 08:50:07;;;;;;;16.80;14.90;;;;;;;;;;5065726;28;20199;-44
2022/10/31 08:52:33;;;;;;;19.67;16.70;;;;;;;;;;5061955;28;20729;-46
2022/10/31 08:54:59;;;;;;;19.47;17.27;;;;;;;;;;5060386;28;20909;-45
2022/10/31 08:57:25;;;;;;;20.83;18.63;;;;;;;;;;5063001;28;20207;-45
2022/10/31 08:59:51;;;;;;;19.07;17.10;;;;;;;;;;5065672;28;20279;-45
2022/10/31 09:02:18;;;;;;;19.27;17.23;;;;;;;;;;5068703;28;20228;-45
2022/10/31 09:04:44;;;;;;;21.07;17.73;;;;;;;;;;5062657;28;20299;-44
2022/10/31 09:07:10;;;;;;;21.53;17.20;;;;;;;;;;5067220;28;20733;-44
2022/10/31 09:09:37;;;;;;;16.43;14.63;;;;;;;;;;5068642;28;20219;-45
2022/10/31 09:12:03;;;;;;;18.00;16.20;;;;;;;;;;5064453;28;20192;-44
2022/10/31 09:14:29;;;;;;;19.60;17.10;;;;;;;;;;5062798;28;20225;-44
2022/10/31 09:16:55;;;;;;;16.07;14.43;;;;;;;;;;5061845;28;20547;-44
2022/10/31 09:19:22;;;;;;;18.00;16.13;;;;;;;;;;5062357;28;20556;-44
2022/10/31 09:21:51;;;;;;;21.27;18.67;;;;;;;;;;5064876;28;20643;-45
2022/10/31 09:24:18;;;;;;;17.27;15.50;;;;;;;;;;5068257;28;20253;-45
2022/10/31 09:26:44;;;;;;;17.27;14.80;;;;;;;;;;5068312;28;20206;-46
2022/10/31 09:29:10;;;;;;;28.90;25.60;;;;;;;;;;5063331;28;20595;-45
2022/10/31 09:31:36;;;;;;;16.27;14.57;;;;;;;;;;5062711;28;20210;-44
2022/10/31 09:34:02;;;;;;;15.73;14.13;;;;;;;;;;5066227;28;20205;-45
2022/10/31 09:36:29;;;;;;;15.57;13.20;;;;;;;;;;5068240;28;20198;-45
2022/10/31 09:38:55;;;;;;;17.57;14.67;;;;;;;;;;5064414;28;20261;-45
2022/10/31 09:41:25;;;;;;;17.23;13.07;;;;;;;;;;5062750;28;20197;-45
2022/10/31 09:43:57;;;;;;;17.77;13.00;;;;;;;;;;5063990;28;20204;-45
2022/10/31 09:46:26;;;;;;;15.57;13.50;;;;;;;;;;5063411;28;20282;-47
2022/10/31 09:49:04;;;;;;;18.67;15.77;;;;;;;;;;5066349;28;20199;-45
2022/10/31 09:51:33;;;;;;;19.47;14.20;;;;;;;;;;5067222;28;20235;-46
2022/10/31 09:54:02;;;;;;;18.87;16.13;;;;;;;;;;5061939;28;20226;-45
2022/10/31 09:56:29;;;;;;;18.73;15.63;;;;;;;;;;5061344;28;20230;-45
2022/10/31 09:58:58;;;;;;;19.90;15.10;;;;;;;;;;5064063;28;20257;-45
2022/10/31 10:01:29;;;;;;;21.27;15.57;;;;;;;;;;5065786;28;20203;-45
2022/10/31 10:03:57;;;;;;;20.27;14.40;;;;;;;;;;5066162;28;20199;-45
2022/10/31 10:06:24;;;;;;;22.23;16.10;;;;;;;;;;5065887;28;20195;-46
2022/10/31 10:08:52;;;;;;;18.17;15.87;;;;;;;;;;5061130;28;20219;-45
2022/10/31 10:11:28;;;;;;;21.07;17.03;;;;;;;;;;5062183;28;20208;-45
2022/10/31 10:13:58;;;;;;;21.13;16.80;;;;;;;;;;5065600;28;20195;-45
2022/10/31 10:16:33;;;;;;;21.67;18.20;;;;;;;;;;5067279;28;20616;-45
2022/10/31 10:19:06;;;;;;;20.97;16.63;;;;;;;;;;5061704;28;20560;-46
2022/10/31 10:21:37;;;;;;;21.20;15.70;;;;;;;;;;5061761;28;20202;-45
2022/10/31 10:24:10;;;;;;;23.93;16.53;;;;;;;;;;5061396;28;20206;-45
2022/10/31 10:26:37;;;;;;;18.60;14.20;;;;;;;;;;5056314;28;20207;-46
2022/10/31 10:29:09;;;;;;;22.17;15.33;;;;;;;;;;5065457;28;20752;-45
2022/10/31 10:31:37;;;;;;;19.93;15.23;;;;;;;;;;5067050;28;20203;-46
2022/10/31 10:34:11;;;;;;;18.13;14.50;;;;;;;;;;5061793;28;20213;-46
2022/10/31 10:36:39;;;;;;;18.27;14.00;;;;;;;;;;5061263;28;20295;-45
2022/10/31 10:39:09;;;;;;;20.43;15.67;;;;;;;;;;5060555;28;20249;-46
2022/10/31 10:41:35;;;;;;;19.37;13.60;;;;;;;;;;5064549;28;20209;-45
2022/10/31 10:44:01;;;;;;;19.40;14.53;;;;;;;;;;5064469;28;20207;-45
2022/10/31 10:49:19;;;;;;;19.27;14.17;;;;;;;;;;5063487;28;20225;-46
2022/10/31 10:51:47;;;;;;;17.73;13.80;;;;;;;;;;5063652;28;20656;-46
2022/10/31 10:54:24;;;;;;;14.77;12.27;;;;;;;;;;5066860;28;20202;-46
2022/10/31 10:56:54;;;;;;;18.00;13.63;;;;;;;;;;5065125;28;20211;-46
2022/10/31 10:59:21;;;;;;;16.17;12.47;;;;;;;;;;5065312;28;20559;-46
2022/10/31 11:01:49;;;;;;;20.83;13.83;;;;;;;;;;5063089;28;20223;-46
2022/10/31 11:04:23;;;;;;;17.03;13.10;;;;;;;;;;5063186;28;20233;-46
2022/10/31 11:06:56;;;;;;;15.73;12.43;;;;;;;;;;5067641;28;20206;-46
2022/10/31 11:09:24;;;;;;;15.73;12.30;;;;;;;;;;5064792;28;20216;-46
2022/10/31 11:11:50;;;;;;;16.73;13.50;;;;;;;;;;5066393;28;20238;-46
2022/10/31 11:14:17;;;;;;;14.77;12.87;;;;;;;;;;5064033;28;20202;-46
2022/10/31 11:16:45;;;;;;;15.93;12.83;;;;;;;;;;5062677;28;20534;-45
2022/10/31 11:19:15;;;;;;;18.13;13.90;;;;;;;;;;5068690;28;20260;-45
2022/10/31 11:21:41;;;;;;;16.13;12.17;;;;;;;;;;5070741;28;20206;-45
2022/10/31 11:24:14;;;;;;;18.90;13.13;;;;;;;;;;5065295;28;20302;-45
2022/10/31 11:26:42;;;;;;;21.07;13.17;;;;;;;;;;5067128;28;20187;-45
2022/10/31 11:29:13;;;;;;;19.60;11.33;;;;;;;;;;5066921;28;20212;-45
2022/10/31 11:31:40;;;;;;;18.00;12.50;;;;;;;;;;5068812;28;20234;-45
2022/10/31 11:34:07;;;;;;;18.60;15.23;;;;;;;;;;5068511;28;20203;-45
2022/10/31 11:36:35;;;;;;;16.63;12.77;;;;;;;;;;5070613;28;20282;-45
2022/10/31 11:39:03;;;;;;;16.40;11.47;;;;;;;;;;5064999;28;20199;-44
2022/10/31 11:41:31;;;;;;;17.80;12.50;;;;;;;;;;5065300;28;20195;-44
2022/10/31 11:44:00;;;;;;;20.20;12.73;;;;;;;;;;5064312;28;20556;-45
2022/10/31 11:46:28;;;;;;;19.17;13.80;;;;;;;;;;5068299;28;20757;-45
2022/10/31 11:48:56;;;;;;;17.90;13.13;;;;;;;;;;5068103;28;20204;-45
2022/10/31 11:51:24;;;;;;;19.20;14.43;;;;;;;;;;5068063;28;20242;-45
2022/10/31 11:53:52;;;;;;;18.40;11.40;;;;;;;;;;5064778;28;20199;-46
2022/10/31 11:56:18;;;;;;;20.47;13.23;;;;;;;;;;5066374;28;20257;-45
2022/10/31 11:58:55;;;;;;;14.83;11.80;;;;;;;;;;5065820;28;20183;-45
2022/10/31 12:01:24;;;;;;;16.80;12.37;;;;;;;;;;5069750;28;20210;-45
2022/10/31 12:03:54;;;;;;;17.60;11.30;;;;;;;;;;5067326;28;20264;-46
2022/10/31 12:06:22;;;;;;;17.53;13.13;;;;;;;;;;5068216;28;20191;-45
2022/10/31 12:08:48;;;;;;;17.40;11.03;;;;;;;;;;5066048;28;20231;-46
2022/10/31 12:11:22;;;;;;;16.53;11.77;;;;;;;;;;5066392;28;20196;-45
2022/10/31 12:13:55;;;;;;;17.40;12.27;;;;;;;;;;5067944;28;20262;-45
2022/10/31 12:16:26;;;;;;;16.97;13.20;;;;;;;;;;5069655;28;20207;-46
2022/10/31 12:19:02;;;;;;;16.93;12.27;;;;;;;;;;5065211;28;20206;-47
2022/10/31 12:21:34;;;;;;;16.93;12.57;;;;;;;;;;5064288;28;20616;-47
2022/10/31 12:24:06;;;;;;;16.30;12.43;;;;;;;;;;5064052;28;20204;-46
2022/10/31 12:26:35;;;;;;;14.37;10.27;;;;;;;;;;5064024;28;20666;-46
2022/10/31 12:29:08;;;;;;;17.07;13.07;;;;;;;;;;5065671;28;20199;-46
2022/10/31 12:31:40;;;;;;;19.27;15.10;;;;;;;;;;5069426;28;20265;-46
2022/10/31 12:34:26;;;;;;;14.33;12.23;;;;;;;;;;5067598;28;20187;-46
2022/10/31 12:36:57;;;;;;;19.10;13.37;;;;;;;;;;5065445;28;20213;-46
2022/10/31 12:39:31;;;;;;;16.60;13.03;;;;;;;;;;5063864;28;20204;-46
2022/10/31 12:42:00;;;;;;;21.97;17.20;;;;;;;;;;5065550;28;20227;-46
2022/10/31 12:44:36;;;;;;;18.37;15.30;;;;;;;;;;5069588;28;20564;-46
2022/10/31 12:47:08;;;;;;;18.33;14.67;;;;;;;;;;5067330;28;20199;-46
2022/10/31 12:49:42;;;;;;;17.43;14.63;;;;;;;;;;5067653;28;20253;-46
2022/10/31 12:52:17;;;;;;;19.20;15.63;;;;;;;;;;5063515;28;20241;-45
2022/10/31 12:54:50;;;;;;;15.87;13.67;;;;;;;;;;5064937;28;20265;-45
2022/10/31 12:57:21;;;;;;;21.53;17.77;;;;;;;;;;5063667;28;20195;-46
2022/10/31 12:59:49;;;;;;;19.27;17.17;;;;;;;;;;5063548;28;20207;-46
2022/10/31 13:02:18;;;;;;;18.77;15.90;;;;;;;;;;5066526;28;20274;-46
2022/10/31 13:04:48;;;;;;;23.57;17.50;;;;;;;;;;5068660;28;20223;-46
2022/10/31 13:07:17;;;;;;;17.90;15.53;;;;;;;;;;5061365;28;20207;-45
2022/10/31 13:09:46;;;;;;;17.03;14.43;;;;;;;;;;5064465;28;20198;-46
2022/10/31 13:12:13;;;;;;;26.33;22.57;;;;;;;;;;5063160;28;20195;-45
2022/10/31 13:14:41;;;;;;;19.23;17.17;;;;;;;;;;5063233;28;20298;-45
2022/10/31 13:17:10;;;;;;;19.10;17.10;;;;;;;;;;5064910;28;20234;-45
2022/10/31 13:19:37;;;;;;;18.27;16.20;;;;;;;;;;5068335;28;20297;-46
2022/10/31 13:22:07;;;;;;;23.83;16.53;;;;;;;;;;5066062;28;20703;-46
2022/10/31 13:24:35;;;;;;;21.27;17.53;;;;;;;;;;5062407;28;20204;-45
2022/10/31 13:27:03;;;;;;;23.13;17.90;;;;;;;;;;5066384;28;20681;-45
2022/10/31 13:29:31;;;;;;;22.23;17.37;;;;;;;;;;5067964;28;20191;-45
2022/10/31 13:31:57;;;;;;;21.63;17.33;;;;;;;;;;5064442;28;20286;-45
2022/10/31 13:34:26;;;;;;;30.63;27.33;;;;;;;;;;5049432;28;20618;-48
2022/10/31 13:36:58;;;;;;;22.73;18.80;;;;;;;;;;5064592;28;20195;-46
2022/10/31 13:39:30;;;;;;;25.43;19.00;;;;;;;;;;5067188;28;20206;-48
2022/10/31 13:42:01;;;;;;;23.10;18.20;;;;;;;;;;5065375;28;20211;-45
2022/10/31 13:44:27;;;;;;;27.40;18.40;;;;;;;;;;5065234;28;20203;-46
2022/10/31 13:46:54;;;;;;;22.70;17.90;;;;;;;;;;5061773;28;20241;-46
2022/10/31 13:49:24;;;;;;;20.87;17.20;;;;;;;;;;5060852;28;20224;-46
2022/10/31 13:51:52;;;;;;;21.83;17.33;;;;;;;;;;5062666;28;20278;-46
2022/10/31 13:54:22;;;;;;;23.53;17.80;;;;;;;;;;5066714;28;20260;-46
2022/10/31 13:56:51;;;;;;;27.57;19.47;;;;;;;;;;5066276;28;20260;-46
2022/10/31 13:59:19;;;;;;;26.10;18.43;;;;;;;;;;5066095;28;20203;-46
2022/10/31 14:01:49;;;;;;;23.50;19.30;;;;;;;;;;5063330;28;20198;-46
2022/10/31 14:04:17;;;;;;;23.30;18.73;;;;;;;;;;5062239;28;20191;-46
2022/10/31 14:06:46;;;;;;;22.93;18.03;;;;;;;;;;5058934;28;20199;-46
2022/10/31 14:09:24;;;;;;;25.60;18.83;;;;;;;;;;5060424;28;20688;-46
2022/10/31 14:11:51;;;;;;;25.90;19.47;;;;;;;;;;5063557;28;20225;-46
2022/10/31 14:14:18;;;;;;;26.57;19.63;;;;;;;;;;5065580;28;20294;-46
2022/10/31 14:16:46;;;;;;;29.40;21.90;;;;;;;;;;5066400;28;20206;-46
2022/10/31 14:19:16;;;;;;;28.07;23.37;;;;;;;;;;5064229;28;20198;-46
2022/10/31 14:21:43;;;;;;;29.77;19.90;;;;;;;;;;5062013;28;20198;-46
2022/10/31 14:24:14;;;;;;;31.47;21.50;;;;;;;;;;5060109;28;20203;-46